Time;durP1;ratioP1;P1;durP2;ratioP2;P2;SDS_P1;SDS_P2;PMS_P1;PMS_P2;Temp;Humidity;BMP_temperature;BMP_pressure;BME280_temperature;BME280_humidity;BME280_pressure;Samples;Min_cycle;Max_cycle;Signal;HPM_P1;HPM_P2
2022/09/17 00:01:13;;;;;;;16.23;2.40;;;9.90;99.90;;;;;;5130837;27;20110;-69
2022/09/17 00:03:38;;;;;;;19.53;3.27;;;9.80;99.90;;;;;;5121087;27;20026;-69
2022/09/17 00:06:06;;;;;;;10.13;2.10;;;9.80;99.90;;;;;;5131400;27;20047;-69
2022/09/17 00:08:33;;;;;;;12.18;2.28;;;9.80;99.90;;;;;;5091280;27;20086;-70
2022/09/17 00:11:07;;;;;;;14.15;2.67;;;9.80;99.90;;;;;;5115296;27;20067;-69
2022/09/17 00:13:32;;;;;;;16.65;3.13;;;9.70;99.90;;;;;;5092369;27;20043;-69
2022/09/17 00:15:58;;;;;;;16.65;2.30;;;9.70;99.90;;;;;;5118053;27;20046;-69
2022/09/17 00:18:23;;;;;;;12.10;2.85;;;9.70;99.90;;;;;;5133784;27;20050;-69
2022/09/17 00:20:49;;;;;;;15.02;2.72;;;9.70;99.90;;;;;;5152114;27;20089;-69
2022/09/17 00:23:15;;;;;;;14.77;2.28;;;9.60;99.90;;;;;;5123816;27;20399;-69
2022/09/17 00:25:42;;;;;;;10.45;2.17;;;9.60;99.90;;;;;;5141724;27;20039;-69
2022/09/17 00:28:08;;;;;;;10.38;2.20;;;9.60;99.90;;;;;;5118302;27;20051;-69
2022/09/17 00:30:34;;;;;;;11.30;2.40;;;9.60;99.90;;;;;;5100472;27;20122;-69
2022/09/17 00:33:00;;;;;;;15.80;2.00;;;9.60;99.90;;;;;;5102777;27;20042;-69
2022/09/17 00:35:26;;;;;;;11.60;1.92;;;9.60;99.90;;;;;;5129947;27;20047;-69
2022/09/17 00:37:51;;;;;;;10.73;2.25;;;9.60;99.90;;;;;;5117174;27;20050;-69
2022/09/17 00:40:18;;;;;;;14.43;2.67;;;9.60;99.90;;;;;;5134162;27;20047;-69
2022/09/17 00:42:44;;;;;;;12.90;2.72;;;9.70;99.90;;;;;;5123547;27;20054;-69
2022/09/17 00:45:11;;;;;;;14.88;2.80;;;9.90;99.90;;;;;;5135520;27;20038;-69
2022/09/17 00:48:03;;;;;;;14.20;2.63;;;10.00;99.90;;;;;;5100430;28;20047;-69
2022/09/17 00:50:33;;;;;;;12.40;2.28;;;10.10;99.90;;;;;;5115014;27;20047;-69
2022/09/17 00:53:05;;;;;;;10.25;2.75;;;10.10;99.90;;;;;;5142954;27;20047;-69
2022/09/17 00:55:36;;;;;;;12.98;2.30;;;10.10;99.90;;;;;;5113571;27;20046;-69
2022/09/17 00:58:05;;;;;;;14.32;2.63;;;10.10;99.90;;;;;;5094058;27;20040;-69
2022/09/17 01:00:31;;;;;;;15.10;2.75;;;10.10;99.90;;;;;;5132986;27;20047;-69
2022/09/17 01:02:57;;;;;;;13.27;2.58;;;10.00;99.90;;;;;;5131767;27;20497;-69
2022/09/17 01:05:51;;;;;;;13.65;2.58;;;10.00;99.90;;;;;;5094247;27;20421;-69
2022/09/17 01:08:51;;;;;;;10.93;2.30;;;9.90;99.90;;;;;;5137249;27;20070;-69
2022/09/17 01:11:35;;;;;;;10.00;2.03;;;9.90;99.90;;;;;;5054832;28;20123;-69
2022/09/17 01:14:15;;;;;;;11.63;2.17;;;9.80;99.90;;;;;;5113872;27;20072;-69
2022/09/17 01:17:06;;;;;;;12.75;2.42;;;9.80;99.90;;;;;;5136567;27;20078;-69
2022/09/17 01:19:44;;;;;;;12.48;2.38;;;9.80;99.90;;;;;;5100185;27;20513;-69
2022/09/17 01:22:14;;;;;;;9.75;1.92;;;9.70;99.90;;;;;;5104046;27;20051;-69
2022/09/17 01:24:45;;;;;;;11.20;2.25;;;9.70;99.90;;;;;;5114028;28;20042;-69
2022/09/17 01:27:39;;;;;;;12.90;2.20;;;9.60;99.90;;;;;;5120380;27;20027;-69
2022/09/17 01:30:30;;;;;;;10.45;2.15;;;9.60;99.90;;;;;;5114486;27;20055;-69
2022/09/17 01:33:08;;;;;;;12.07;3.03;;;9.50;99.90;;;;;;5128615;27;20052;-69
2022/09/17 01:35:56;;;;;;;11.98;2.58;;;9.50;99.90;;;;;;5115834;27;20047;-69
2022/09/17 01:38:26;;;;;;;8.40;2.00;;;9.50;99.90;;;;;;5144925;27;20047;-69
2022/09/17 01:41:26;;;;;;;15.65;2.38;;;9.40;99.90;;;;;;5128714;27;20031;-70
2022/09/17 01:43:57;;;;;;;10.55;2.55;;;9.40;99.90;;;;;;5075429;27;20164;-69
2022/09/17 01:46:35;;;;;;;15.30;2.85;;;9.40;99.90;;;;;;5126278;27;20043;-69
2022/09/17 01:49:04;;;;;;;11.40;2.35;;;9.40;99.90;;;;;;5123102;27;20358;-69
2022/09/17 01:51:37;;;;;;;14.80;2.60;;;9.40;99.90;;;;;;5122813;27;20487;-69
2022/09/17 01:54:28;;;;;;;15.00;2.67;;;9.40;99.90;;;;;;5112969;27;20055;-69
2022/09/17 01:57:00;;;;;;;14.35;2.13;;;9.40;99.90;;;;;;5103648;27;20121;-69
2022/09/17 01:59:42;;;;;;;14.50;2.47;;;9.50;99.90;;;;;;5113434;28;20060;-69
2022/09/17 02:02:15;;;;;;;14.77;2.90;;;9.50;99.90;;;;;;5094390;28;20035;-69
2022/09/17 02:05:06;;;;;;;7.88;1.90;;;9.50;99.90;;;;;;5099072;28;20031;-69
2022/09/17 02:07:37;;;;;;;14.00;2.17;;;9.50;99.90;;;;;;5119894;27;20035;-69
2022/09/17 02:10:16;;;;;;;8.57;1.70;;;9.50;99.90;;;;;;5121554;28;20080;-69
2022/09/17 02:12:47;;;;;;;12.07;2.17;;;9.60;99.90;;;;;;5104486;28;20051;-69
2022/09/17 02:15:23;;;;;;;9.52;2.05;;;9.50;99.90;;;;;;5125384;28;20062;-69
2022/09/17 02:17:58;;;;;;;10.90;2.28;;;9.50;99.90;;;;;;5120616;27;20035;-69
2022/09/17 02:20:30;;;;;;;10.55;1.90;;;9.50;99.90;;;;;;5104632;28;20036;-69
2022/09/17 02:23:01;;;;;;;13.00;2.42;;;9.60;99.90;;;;;;5100086;28;20080;-69
2022/09/17 02:25:35;;;;;;;7.00;2.03;;;9.50;99.90;;;;;;5115407;28;20047;-69
2022/09/17 02:28:12;;;;;;;12.50;2.40;;;9.50;99.90;;;;;;5123222;27;20031;-69
2022/09/17 02:30:37;;;;;;;7.82;1.77;;;9.60;99.90;;;;;;5114231;28;20048;-69
2022/09/17 02:33:07;;;;;;;9.07;1.75;;;9.60;99.90;;;;;;5146498;27;20039;-69
2022/09/17 02:35:33;;;;;;;14.63;2.92;;;9.60;99.90;;;;;;5099480;27;20044;-69
2022/09/17 02:37:59;;;;;;;12.13;2.33;;;9.70;99.90;;;;;;5134678;27;20498;-69
2022/09/17 02:40:30;;;;;;;9.65;2.17;;;9.70;99.90;;;;;;5132619;28;20051;-69
2022/09/17 02:43:20;;;;;;;9.20;2.28;;;9.70;99.90;;;;;;5110358;28;20551;-69
2022/09/17 02:46:14;;;;;;;11.48;2.17;;;9.70;99.90;;;;;;5133678;28;20054;-69
2022/09/17 02:49:06;;;;;;;8.23;2.10;;;9.70;99.90;;;;;;5101807;28;20046;-69
2022/09/17 02:51:55;;;;;;;9.25;2.00;;;9.80;99.90;;;;;;5070819;28;20536;-69
2022/09/17 02:54:51;;;;;;;10.88;2.22;;;9.90;99.90;;;;;;5130854;27;20066;-69
2022/09/17 02:57:26;;;;;;;10.20;1.85;;;9.90;99.90;;;;;;5136202;27;20539;-69
2022/09/17 03:00:13;;;;;;;13.18;2.03;;;10.00;99.90;;;;;;5133996;27;20058;-69
2022/09/17 03:02:50;;;;;;;10.35;2.03;;;10.10;99.90;;;;;;5119889;27;20114;-69
2022/09/17 03:05:18;;;;;;;12.05;2.65;;;10.10;99.90;;;;;;5135524;27;20035;-69
2022/09/17 03:07:44;;;;;;;14.82;1.77;;;10.10;99.90;;;;;;5133606;27;20043;-69
2022/09/17 03:10:10;;;;;;;8.80;1.90;;;10.10;99.90;;;;;;5107126;27;20328;-69
2022/09/17 03:12:37;;;;;;;8.50;1.65;;;10.10;99.90;;;;;;5132590;27;20051;-69
2022/09/17 03:15:03;;;;;;;11.10;2.45;;;10.10;99.90;;;;;;5132623;27;20046;-69
2022/09/17 03:17:29;;;;;;;10.70;1.90;;;10.10;99.90;;;;;;5121269;27;20034;-69
2022/09/17 03:19:55;;;;;;;9.13;1.75;;;10.00;99.90;;;;;;5114355;27;20486;-69
2022/09/17 03:22:20;;;;;;;8.65;1.83;;;10.00;99.90;;;;;;5141529;27;20041;-69
2022/09/17 03:24:46;;;;;;;5.28;1.98;;;9.90;99.90;;;;;;5130588;27;20106;-69
2022/09/17 03:27:11;;;;;;;4.10;1.30;;;9.90;99.90;;;;;;5150692;27;20047;-69
2022/09/17 03:29:37;;;;;;;9.50;1.85;;;9.80;99.90;;;;;;5137143;27;20036;-69
2022/09/17 03:32:03;;;;;;;7.10;1.60;;;9.80;99.90;;;;;;5116011;28;20056;-69
2022/09/17 03:34:28;;;;;;;9.18;2.13;;;9.80;99.90;;;;;;5114949;27;20100;-69
2022/09/17 03:36:54;;;;;;;6.03;1.65;;;9.80;99.90;;;;;;5145866;27;20486;-69
2022/09/17 03:39:19;;;;;;;13.77;2.13;;;9.80;99.90;;;;;;5118021;27;20454;-69
2022/09/17 03:41:45;;;;;;;6.88;1.50;;;9.80;99.90;;;;;;5096673;27;20047;-69
2022/09/17 03:44:11;;;;;;;7.32;1.58;;;9.80;99.90;;;;;;5131817;27;20494;-69
2022/09/17 03:46:36;;;;;;;8.73;1.70;;;9.80;99.90;;;;;;5136189;27;20039;-69
2022/09/17 03:49:02;;;;;;;7.97;1.70;;;9.70;99.90;;;;;;5133337;27;20074;-69
2022/09/17 03:51:28;;;;;;;8.02;1.55;;;9.70;99.90;;;;;;5116934;27;20043;-69
2022/09/17 03:53:53;;;;;;;7.80;1.70;;;9.70;99.90;;;;;;5135030;27;20111;-69
2022/09/17 03:56:19;;;;;;;12.32;2.00;;;9.60;99.90;;;;;;5120537;27;20084;-69
2022/09/17 03:58:44;;;;;;;6.15;1.55;;;9.60;99.90;;;;;;5118267;27;20049;-69
2022/09/17 04:01:10;;;;;;;9.10;1.80;;;9.60;99.90;;;;;;5149256;27;20390;-69
2022/09/17 04:03:36;;;;;;;11.40;2.00;;;9.60;99.90;;;;;;5126026;27;20132;-69
2022/09/17 04:06:02;;;;;;;6.25;1.35;;;9.60;99.90;;;;;;5132123;27;20080;-69
2022/09/17 04:08:27;;;;;;;7.55;2.33;;;9.60;99.90;;;;;;5107072;28;20035;-69
2022/09/17 04:10:53;;;;;;;14.88;2.42;;;9.60;99.90;;;;;;5115121;28;20075;-69
2022/09/17 04:13:19;;;;;;;9.27;2.13;;;9.70;99.90;;;;;;5101157;27;20463;-69
2022/09/17 04:15:46;;;;;;;9.07;2.00;;;9.70;99.90;;;;;;5130639;27;20127;-69
2022/09/17 04:18:12;;;;;;;8.35;1.45;;;9.80;99.90;;;;;;5108023;27;20087;-69
2022/09/17 04:20:38;;;;;;;7.78;1.63;;;9.80;99.90;;;;;;5139084;27;20052;-69
2022/09/17 04:23:29;;;;;;;7.40;1.77;;;9.80;99.90;;;;;;5116322;27;20049;-69
2022/09/17 04:25:54;;;;;;;9.40;1.65;;;9.80;99.90;;;;;;5138741;27;20463;-69
2022/09/17 04:28:20;;;;;;;7.35;1.58;;;9.70;99.90;;;;;;5114658;27;20043;-69
2022/09/17 04:30:47;;;;;;;8.52;1.67;;;9.80;99.90;;;;;;5119814;27;20073;-69
2022/09/17 04:33:13;;;;;;;10.23;1.88;;;9.70;99.90;;;;;;5117446;27;20043;-69
2022/09/17 04:35:38;;;;;;;13.55;1.90;;;9.70;99.90;;;;;;5114940;28;20122;-69
2022/09/17 04:38:17;;;;;;;11.50;2.58;;;9.70;99.90;;;;;;5103109;27;20035;-69
2022/09/17 04:40:43;;;;;;;12.10;1.70;;;9.70;99.90;;;;;;5115071;28;20058;-69
2022/09/17 04:43:10;;;;;;;13.32;2.13;;;9.90;99.90;;;;;;5096672;27;20043;-69
2022/09/17 04:45:36;;;;;;;10.40;1.70;;;9.70;99.90;;;;;;5126368;27;20095;-69
2022/09/17 04:48:03;;;;;;;8.30;1.73;;;10.00;99.90;;;;;;5112051;27;20479;-69
2022/09/17 04:50:29;;;;;;;6.38;1.73;;;9.80;99.90;;;;;;5134100;27;20046;-69
2022/09/17 04:52:55;;;;;;;7.55;1.92;;;9.80;99.90;;;;;;5130963;27;20093;-69
2022/09/17 04:55:20;;;;;;;10.15;2.10;;;9.90;99.90;;;;;;5139461;27;20075;-69
2022/09/17 04:57:51;;;;;;;9.30;1.83;;;9.90;99.90;;;;;;5120923;27;20031;-69
2022/09/17 05:00:17;;;;;;;7.65;1.70;;;9.80;99.90;;;;;;5110974;27;20903;-69
2022/09/17 05:02:48;;;;;;;10.75;2.00;;;9.80;99.90;;;;;;5122616;27;20116;-69
2022/09/17 05:05:16;;;;;;;8.77;2.08;;;9.70;99.90;;;;;;5117856;27;20065;-69
2022/09/17 05:08:07;;;;;;;10.48;2.13;;;9.70;99.90;;;;;;5116567;27;20058;-69
2022/09/17 05:10:33;;;;;;;8.57;1.70;;;9.60;99.90;;;;;;5124933;27;20031;-69
2022/09/17 05:12:59;;;;;;;5.85;1.38;;;9.60;99.90;;;;;;5128823;27;20047;-69
2022/09/17 05:15:26;;;;;;;10.98;1.90;;;9.60;99.90;;;;;;5131839;27;20061;-69
2022/09/17 05:17:52;;;;;;;10.18;1.70;;;9.60;99.90;;;;;;5123860;27;20467;-69
2022/09/17 05:20:18;;;;;;;9.13;1.83;;;9.70;99.90;;;;;;5105858;27;20486;-69
2022/09/17 05:22:45;;;;;;;9.05;1.63;;;9.70;99.90;;;;;;5111290;27;20177;-69
2022/09/17 05:25:13;;;;;;;9.20;2.00;;;9.70;99.90;;;;;;5127704;27;20164;-70
2022/09/17 05:27:40;;;;;;;6.93;1.33;;;9.70;99.90;;;;;;5130595;27;20046;-69
2022/09/17 05:30:10;;;;;;;9.70;1.73;;;9.60;99.90;;;;;;5104641;27;20040;-69
2022/09/17 05:32:36;;;;;;;10.60;1.85;;;9.60;99.90;;;;;;5121500;27;20038;-69
2022/09/17 05:35:03;;;;;;;6.50;1.52;;;9.60;99.90;;;;;;5127277;27;20233;-69
2022/09/17 05:37:28;;;;;;;7.72;1.52;;;9.60;99.90;;;;;;5122708;27;20123;-69
2022/09/17 05:39:54;;;;;;;7.72;1.48;;;9.60;99.90;;;;;;5137374;27;20466;-69
2022/09/17 05:42:20;;;;;;;11.48;1.92;;;9.60;99.90;;;;;;5126462;27;20043;-69
2022/09/17 05:44:46;;;;;;;9.52;1.90;;;9.70;99.90;;;;;;5126110;27;20035;-69
2022/09/17 05:47:11;;;;;;;7.30;1.45;;;9.70;99.90;;;;;;5144495;27;20130;-69
2022/09/17 05:49:37;;;;;;;6.35;1.48;;;9.80;99.90;;;;;;5154969;27;20385;-69
2022/09/17 05:52:02;;;;;;;7.55;1.40;;;9.90;99.90;;;;;;5146775;27;20039;-69
2022/09/17 05:54:29;;;;;;;14.88;1.73;;;10.00;99.90;;;;;;5127019;27;20513;-69
2022/09/17 05:56:54;;;;;;;11.05;2.35;;;10.00;99.90;;;;;;5127777;27;20555;-69
2022/09/17 05:59:20;;;;;;;6.18;1.73;;;9.90;99.90;;;;;;5132674;27;20035;-69
2022/09/17 06:01:47;;;;;;;6.57;1.42;;;9.90;99.90;;;;;;5087698;28;20063;-69
2022/09/17 06:04:12;;;;;;;8.15;1.80;;;9.90;99.90;;;;;;5115617;27;20039;-69
2022/09/17 06:06:40;;;;;;;14.25;2.10;;;9.90;99.90;;;;;;5127005;27;20138;-69
2022/09/17 06:09:06;;;;;;;10.77;1.80;;;10.00;99.90;;;;;;5107302;27;20035;-69
2022/09/17 06:11:32;;;;;;;6.10;1.75;;;10.00;99.90;;;;;;5133810;27;20055;-69
2022/09/17 06:13:58;;;;;;;8.68;1.80;;;10.00;99.90;;;;;;5107960;28;20122;-68
2022/09/17 06:16:24;;;;;;;14.00;2.72;;;10.00;99.90;;;;;;5114593;28;20046;-69
2022/09/17 06:18:51;;;;;;;7.88;2.00;;;10.00;99.90;;;;;;5148427;27;20038;-68
2022/09/17 06:21:18;;;;;;;9.60;1.60;;;10.00;99.90;;;;;;5112222;28;20046;-69
2022/09/17 06:23:44;;;;;;;8.77;1.85;;;10.00;99.90;;;;;;5129950;28;20096;-69
2022/09/17 06:26:10;;;;;;;7.80;1.52;;;10.00;99.90;;;;;;5130290;27;20039;-69
2022/09/17 06:28:36;;;;;;;4.55;1.33;;;9.90;99.90;;;;;;5136813;27;20099;-68
2022/09/17 06:31:03;;;;;;;10.25;2.03;;;9.90;99.90;;;;;;5137405;27;20530;-68
2022/09/17 06:33:35;;;;;;;8.23;1.77;;;9.80;99.90;;;;;;5124514;27;20124;-68
2022/09/17 06:40:23;;;;;;;10.85;1.73;;;9.90;99.90;;;;;;5135714;27;20106;-68
2022/09/17 06:43:54;;;;;;;;;;;;;;;;;;;;;
2022/09/17 06:46:32;;;;;;;10.57;1.75;;;10.30;99.90;;;;;;5118128;27;20123;-69
2022/09/17 06:49:42;;;;;;;7.07;1.42;;;10.50;99.90;;;;;;5119126;27;20031;-68
2022/09/17 06:52:13;;;;;;;5.80;1.38;;;10.50;99.90;;;;;;5135975;27;20121;-69
2022/09/17 06:55:11;;;;;;;6.63;1.48;;;10.50;99.90;;;;;;5137130;27;20039;-69
2022/09/17 06:58:08;;;;;;;4.88;1.30;;;10.50;99.90;;;;;;5118286;27;20050;-69
2022/09/17 07:01:08;;;;;;;4.47;1.30;;;10.40;99.90;;;;;;5098273;27;20041;-69
2022/09/17 07:03:43;;;;;;;8.93;1.40;;;10.40;99.90;;;;;;5118121;27;20138;-69
2022/09/17 07:06:38;;;;;;;9.27;2.00;;;10.20;99.90;;;;;;5136210;27;20031;-69
2022/09/17 07:09:19;;;;;;;9.63;1.80;;;10.20;99.90;;;;;;5121495;27;20571;-68
2022/09/17 07:11:45;;;;;;;6.20;1.63;;;10.30;99.90;;;;;;5151845;27;20118;-68
2022/09/17 07:14:10;;;;;;;8.50;1.98;;;10.50;99.90;;;;;;5142512;27;20409;-68
2022/09/17 07:17:02;;;;;;;6.85;1.30;;;10.80;99.90;;;;;;5137424;27;20122;-69
2022/09/17 07:19:27;;;;;;;8.10;1.80;;;11.00;99.90;;;;;;5098124;28;20039;-68
2022/09/17 07:21:53;;;;;;;4.70;1.63;;;11.10;99.90;;;;;;5116261;28;20047;-68
2022/09/17 07:24:44;;;;;;;5.85;1.55;;;11.20;99.90;;;;;;5098056;28;20127;-70
2022/09/17 07:27:30;;;;;;;6.50;1.85;;;11.30;99.90;;;;;;5097784;28;20050;-69
2022/09/17 07:29:56;;;;;;;10.52;1.50;;;11.40;99.90;;;;;;5112213;27;20047;-69
2022/09/17 07:36:19;;;;;;;7.70;1.40;;;11.30;99.90;;;;;;5119247;27;20122;-68
2022/09/17 07:38:47;;;;;;;6.15;1.45;;;11.60;99.90;;;;;;5133138;27;20517;-68
2022/09/17 07:41:16;;;;;;;7.00;1.67;;;11.80;99.90;;;;;;5101269;27;20459;-68
2022/09/17 07:43:43;;;;;;;4.80;0.90;;;12.00;99.90;;;;;;5136490;27;20328;-67
2022/09/17 07:46:17;;;;;;;9.45;1.38;;;12.00;99.90;;;;;;5118191;27;20056;-68
2022/09/17 07:48:44;;;;;;;5.78;1.30;;;12.00;99.90;;;;;;5136435;27;20070;-68
2022/09/17 07:51:18;;;;;;;5.32;1.23;;;11.90;99.90;;;;;;5136133;27;20043;-68
2022/09/17 07:53:44;;;;;;;3.58;1.30;;;11.90;99.90;;;;;;5118082;27;20058;-68
2022/09/17 07:56:35;;;;;;;4.75;1.00;;;11.90;99.90;;;;;;5136337;27;20055;-67
2022/09/17 07:59:02;;;;;;;5.32;1.15;;;11.90;99.90;;;;;;5152368;27;20103;-67
2022/09/17 08:01:28;;;;;;;5.85;1.42;;;11.90;99.90;;;;;;5100552;27;20031;-68
2022/09/17 08:03:53;;;;;;;3.53;1.20;;;12.10;99.90;;;;;;5136080;27;20035;-68
2022/09/17 08:06:27;;;;;;;3.28;0.98;;;12.20;99.90;;;;;;5135947;27;20035;-68
2022/09/17 08:08:59;;;;;;;7.45;1.40;;;12.50;99.90;;;;;;5136089;27;20494;-68
2022/09/17 08:11:26;;;;;;;;;;;12.80;99.90;;;;;;5136643;27;20470;-68
2022/09/17 08:13:53;;;;;;;4.90;1.02;;;12.90;99.90;;;;;;5116173;27;20015;-68
2022/09/17 08:16:20;;;;;;;7.78;1.33;;;12.90;99.90;;;;;;5133514;27;20051;-68
2022/09/17 08:18:47;;;;;;;7.25;1.27;;;12.70;99.90;;;;;;5136168;27;20371;-68
2022/09/17 08:21:15;;;;;;;5.28;1.00;;;12.50;99.90;;;;;;5135406;27;20145;-67
2022/09/17 08:23:42;;;;;;;6.22;1.00;;;12.40;99.90;;;;;;5134728;27;20065;-67
2022/09/17 08:26:15;;;;;;;5.28;1.08;;;12.30;99.90;;;;;;5118883;27;20038;-68
2022/09/17 08:29:11;;;;;;;3.10;0.98;;;12.20;99.90;;;;;;5114905;27;20058;-68
2022/09/17 08:31:37;;;;;;;5.70;1.23;;;12.30;99.90;;;;;;5076026;28;20536;-68
2022/09/17 08:34:07;;;;;;;5.18;1.27;;;12.40;99.90;;;;;;5117822;27;20071;-68
2022/09/17 08:36:32;;;;;;;7.95;1.33;;;12.50;99.90;;;;;;5136124;27;20051;-69
2022/09/17 09:15:37;;;;;;;3.80;0.88;;;13.10;99.90;;;;;;5286825;24;20042;-68
2022/09/17 09:18:16;;;;;;;4.15;1.13;;;13.20;99.90;;;;;;4806414;29;20039;-68
2022/09/17 09:20:50;;;;;;;3.92;0.90;;;13.30;99.90;;;;;;4806729;29;20407;-68
2022/09/17 09:23:33;;;;;;;3.78;1.10;;;13.30;99.90;;;;;;4789584;29;20051;-68
2022/09/17 09:26:13;;;;;;;5.25;1.00;;;13.40;99.90;;;;;;4806428;29;20081;-68
2022/09/17 09:29:00;;;;;;;3.88;0.90;;;13.60;99.90;;;;;;4790092;29;20112;-68
2022/09/17 09:31:47;;;;;;;4.75;0.70;;;13.70;99.90;;;;;;4772157;30;20139;-67
2022/09/17 09:34:14;;;;;;;5.00;0.90;;;13.60;99.90;;;;;;4772462;29;20154;-67
2022/09/17 09:36:40;;;;;;;3.17;0.77;;;13.50;99.90;;;;;;4813614;29;20381;-68
2022/09/17 09:39:22;;;;;;;5.00;1.50;;;13.30;99.90;;;;;;4815545;29;20051;-68
2022/09/17 09:41:50;;;;;;;4.57;0.85;;;13.30;99.90;;;;;;4805885;29;20099;-68
2022/09/17 09:44:16;;;;;;;5.00;1.25;;;13.50;99.90;;;;;;4805871;29;20369;-68
2022/09/17 09:47:03;;;;;;;6.13;1.10;;;13.70;99.90;;;;;;4806223;29;20108;-67
2022/09/17 09:50:01;;;;;;;5.50;1.30;;;13.80;99.90;;;;;;4789756;29;20054;-68
2022/09/17 09:52:58;;;;;;;2.90;0.95;;;14.00;99.90;;;;;;4730002;29;20063;-68
2022/09/17 09:56:02;;;;;;;3.30;0.90;;;14.00;99.90;;;;;;4775129;29;20057;-68
2022/09/17 09:58:33;;;;;;;2.42;0.93;;;14.10;99.90;;;;;;4810217;29;20407;-68
2022/09/17 10:00:59;;;;;;;3.78;0.80;;;14.30;99.90;;;;;;4789568;29;20188;-68
2022/09/17 10:03:35;;;;;;;1.80;0.80;;;14.50;99.90;;;;;;4805825;29;20396;-68
2022/09/17 10:06:06;;;;;;;5.95;0.90;;;14.60;99.90;;;;;;4805961;29;20112;-67
2022/09/17 10:08:55;;;;;;;2.63;0.70;;;14.80;99.90;;;;;;4805369;29;20090;-69
2022/09/17 10:11:27;;;;;;;4.45;0.90;;;14.60;99.90;;;;;;4804569;29;20131;-70
2022/09/17 10:14:23;;;;;;;4.13;0.80;;;13.90;99.90;;;;;;4789527;29;20057;-69
2022/09/17 10:16:49;;;;;;;4.20;0.70;;;13.40;99.90;;;;;;4790463;29;20042;-70
2022/09/17 10:19:23;;;;;;;4.97;0.95;;;12.90;99.90;;;;;;4814600;29;20042;-69
2022/09/17 10:21:50;;;;;;;5.65;1.00;;;12.90;99.90;;;;;;4810427;29;20471;-69
2022/09/17 10:24:30;;;;;;;4.20;1.02;;;12.70;99.90;;;;;;4819940;29;20054;-70
2022/09/17 10:27:05;;;;;;;5.13;0.80;;;12.70;99.90;;;;;;4789523;29;20068;-69
2022/09/17 10:29:32;;;;;;;4.30;1.13;;;12.70;99.90;;;;;;4805690;29;20112;-70
2022/09/17 10:31:58;;;;;;;3.58;1.00;;;12.80;99.90;;;;;;4789486;29;20069;-69
2022/09/17 10:34:29;;;;;;;4.82;1.10;;;13.10;99.90;;;;;;4806140;29;20199;-70
2022/09/17 10:36:56;;;;;;;3.85;0.75;;;13.20;99.90;;;;;;4773847;29;20092;-69
2022/09/17 10:39:43;;;;;;;4.75;0.80;;;13.10;99.90;;;;;;4789299;29;20388;-70
2022/09/17 10:42:15;;;;;;;4.10;0.90;;;12.90;99.90;;;;;;4802762;29;20418;-69
2022/09/17 10:44:53;;;;;;;4.65;1.05;;;12.70;99.90;;;;;;4815360;29;20034;-69
2022/09/17 10:47:36;;;;;;;2.60;0.60;;;12.60;99.90;;;;;;4801232;29;20065;-69
2022/09/17 10:50:16;;;;;;;4.00;1.10;;;12.60;99.90;;;;;;4795423;29;20051;-70
2022/09/17 10:52:48;;;;;;;3.50;0.75;;;12.80;99.90;;;;;;4804840;29;20072;-69
2022/09/17 10:55:14;;;;;;;;;;;13.00;99.90;;;;;;4810894;29;20054;-70
2022/09/17 10:58:07;;;;;;;4.72;1.13;;;13.20;99.90;;;;;;4813113;29;19927;-70
2022/09/17 11:00:38;;;;;;;4.07;1.10;;;13.40;99.90;;;;;;4787510;29;20059;-70
2022/09/17 11:03:23;;;;;;;6.40;1.10;;;13.70;99.90;;;;;;4771256;30;20055;-70
2022/09/17 11:06:14;;;;;;;7.10;1.50;;;13.90;99.90;;;;;;4787677;30;20117;-70
2022/09/17 11:08:45;;;;;;;3.88;0.98;;;14.10;99.90;;;;;;4773674;29;20496;-69
2022/09/17 11:11:32;;;;;;;3.90;0.90;;;14.30;99.90;;;;;;4787765;29;20053;-70
2022/09/17 11:14:15;;;;;;;7.78;1.48;;;14.60;99.90;;;;;;4807305;29;20077;-70
2022/09/17 11:17:00;;;;;;;7.10;1.42;;;14.80;99.90;;;;;;4808701;29;20046;-69
2022/09/17 11:19:50;;;;;;;4.45;1.10;;;15.00;99.90;;;;;;4792176;29;20123;-69
2022/09/17 11:22:22;;;;;;;7.35;1.25;;;14.90;99.90;;;;;;4804389;29;20396;-69
2022/09/17 11:25:06;;;;;;;5.38;1.13;;;13.60;99.90;;;;;;4791533;29;20440;-69
2022/09/17 11:27:47;;;;;;;4.20;1.08;;;12.60;99.90;;;;;;4811551;29;20114;-69
2022/09/17 11:30:18;;;;;;;5.10;1.25;;;11.80;99.90;;;;;;4808628;29;20074;-69
2022/09/17 11:33:26;;;;;;;6.28;1.42;;;11.30;99.90;;;;;;4792034;29;20062;-69
2022/09/17 11:35:59;;;;;;;5.13;1.02;;;11.10;99.90;;;;;;4808507;29;20082;-70
2022/09/17 11:38:46;;;;;;;5.60;1.20;;;11.00;99.90;;;;;;4790821;29;20066;-69
2022/09/17 11:41:14;;;;;;;5.20;1.02;;;11.20;99.90;;;;;;4788965;29;20074;-69
2022/09/17 11:43:47;;;;;;;8.02;1.10;;;11.30;99.90;;;;;;4808517;29;20094;-70
2022/09/17 11:46:28;;;;;;;4.63;1.20;;;11.30;99.90;;;;;;4792835;29;20099;-69
2022/09/17 11:49:03;;;;;;;4.20;1.00;;;11.30;99.90;;;;;;4791016;29;20453;-69
2022/09/17 11:51:38;;;;;;;5.03;1.38;;;11.50;99.90;;;;;;4807436;29;20055;-69
2022/09/17 11:54:43;;;;;;;6.18;1.15;;;11.60;99.90;;;;;;4807923;29;20054;-69
2022/09/17 11:57:18;;;;;;;5.65;1.45;;;11.60;99.90;;;;;;4807261;29;20572;-69
2022/09/17 11:59:55;;;;;;;5.32;1.20;;;11.80;99.90;;;;;;4808009;29;20053;-69
2022/09/17 12:02:28;;;;;;;6.40;1.58;;;11.90;99.90;;;;;;4791548;29;20043;-69
2022/09/17 12:05:02;;;;;;;3.17;0.85;;;12.10;99.90;;;;;;4807588;29;20054;-69
2022/09/17 12:07:43;;;;;;;7.55;1.25;;;12.10;99.90;;;;;;4807761;29;20043;-70
2022/09/17 12:10:17;;;;;;;6.53;1.10;;;12.00;99.90;;;;;;4791624;29;20051;-69
2022/09/17 12:12:54;;;;;;;2.83;1.13;;;11.90;99.90;;;;;;4807774;29;20063;-69
2022/09/17 12:15:24;;;;;;;5.78;1.10;;;12.00;99.90;;;;;;4806900;29;20444;-69
2022/09/17 12:17:53;;;;;;;4.75;1.20;;;12.20;99.90;;;;;;4807756;29;20358;-69
2022/09/17 12:20:28;;;;;;;5.53;1.25;;;12.40;99.90;;;;;;4791232;29;20055;-69
2022/09/17 12:22:57;;;;;;;5.18;1.60;;;12.70;99.90;;;;;;4807325;29;20070;-69
2022/09/17 12:25:26;;;;;;;6.15;1.45;;;12.80;99.90;;;;;;4791462;29;20415;-69
2022/09/17 12:28:06;;;;;;;6.95;1.70;;;12.70;99.90;;;;;;4807795;29;20089;-68
2022/09/17 12:30:39;;;;;;;7.78;1.40;;;12.70;99.90;;;;;;4790964;29;20434;-69
2022/09/17 12:33:27;;;;;;;10.55;1.70;;;12.70;99.90;;;;;;4791307;29;20062;-69
2022/09/17 12:36:22;;;;;;;8.20;1.63;;;12.50;99.90;;;;;;4807608;29;20050;-69
2022/09/17 12:39:08;;;;;;;8.82;1.30;;;12.40;99.90;;;;;;4806905;29;20117;-69
2022/09/17 12:41:47;;;;;;;7.45;1.88;;;12.30;99.90;;;;;;4790855;29;20047;-68
2022/09/17 12:44:50;;;;;;;6.97;2.17;;;12.40;99.90;;;;;;4807274;29;20115;-69
2022/09/17 12:47:50;;;;;;;12.02;1.70;;;12.60;99.90;;;;;;4790678;29;20480;-69
2022/09/17 12:50:44;;;;;;;8.65;1.90;;;12.90;99.90;;;;;;4807172;29;20126;-69
2022/09/17 13:05:19;;;;;;;9.18;1.70;;;13.10;99.90;;;;;;4960224;24;20145;-68
2022/09/17 13:08:36;;;;;;;4.05;1.10;;;12.90;99.90;;;;;;4808440;29;20380;-68
2022/09/17 13:15:23;;;;;;;7.57;1.70;;;13.00;99.90;;;;;;4824968;29;20046;-68
2022/09/17 13:22:13;;;;;;;12.23;2.08;;;13.60;99.90;;;;;;4824142;29;20045;-68
2022/09/17 13:24:40;;;;;;;10.30;1.60;;;13.80;99.90;;;;;;4824261;29;20054;-68
2022/09/17 13:27:19;;;;;;;12.18;1.88;;;14.00;99.90;;;;;;4793120;29;20078;-68
2022/09/17 13:29:45;;;;;;;10.98;1.80;;;14.10;99.90;;;;;;4808254;29;20054;-68
2022/09/17 13:32:37;;;;;;;8.57;2.13;;;14.00;99.90;;;;;;4808266;29;20053;-68
2022/09/17 13:35:12;;;;;;;9.80;2.00;;;14.00;99.90;;;;;;4824206;29;20050;-68
2022/09/17 13:37:57;;;;;;;8.32;1.98;;;14.10;99.90;;;;;;4823495;29;20129;-68
2022/09/17 13:40:31;;;;;;;11.50;2.00;;;14.10;99.90;;;;;;4824681;29;20054;-68
2022/09/17 13:43:05;;;;;;;5.03;1.33;;;14.20;99.90;;;;;;4807676;29;20046;-68
2022/09/17 13:45:32;;;;;;;9.68;1.77;;;14.20;99.90;;;;;;4808036;29;20054;-68
2022/09/17 13:48:09;;;;;;;8.32;2.22;;;14.30;99.90;;;;;;4824176;29;20325;-68
2022/09/17 13:50:40;;;;;;;10.60;1.85;;;14.20;99.90;;;;;;4824648;29;20117;-69
2022/09/17 13:53:23;;;;;;;8.57;1.77;;;14.20;99.90;;;;;;4822400;29;20046;-68
2022/09/17 13:55:51;;;;;;;8.65;1.50;;;14.30;99.90;;;;;;4807899;29;20099;-68
2022/09/17 13:58:17;;;;;;;4.97;1.65;;;14.40;99.90;;;;;;4807928;29;20050;-68
2022/09/17 14:00:50;;;;;;;6.22;1.35;;;14.60;99.90;;;;;;4824502;29;20107;-68
2022/09/17 14:03:32;;;;;;;7.45;1.75;;;14.70;99.90;;;;;;4823969;29;20047;-67
2022/09/17 14:06:04;;;;;;;5.47;1.50;;;14.90;99.90;;;;;;4808104;29;20054;-68
2022/09/17 14:08:44;;;;;;;9.35;1.70;;;15.00;99.90;;;;;;4823654;29;20110;-68
2022/09/17 14:11:21;;;;;;;6.93;1.58;;;15.20;99.90;;;;;;4824206;29;20046;-68
2022/09/17 14:14:09;;;;;;;10.23;2.00;;;15.20;99.90;;;;;;4820526;29;20051;-68
2022/09/17 14:16:49;;;;;;;10.60;1.60;;;15.10;99.90;;;;;;4800053;29;20057;-68
2022/09/17 14:19:14;;;;;;;8.40;1.75;;;14.80;99.90;;;;;;4822709;29;20141;-68
2022/09/17 14:21:42;;;;;;;7.22;1.40;;;14.40;99.90;;;;;;4813422;29;20125;-68
2022/09/17 14:24:33;;;;;;;12.45;1.90;;;14.00;99.90;;;;;;4823128;29;20436;-67
2022/09/17 14:27:05;;;;;;;9.50;1.85;;;13.70;99.90;;;;;;4821877;29;20054;-68
2022/09/17 14:30:11;;;;;;;8.35;1.77;;;13.60;99.90;;;;;;4807170;29;20188;-68
2022/09/17 14:32:45;;;;;;;9.52;2.10;;;13.60;99.90;;;;;;4819008;29;20145;-68